sensor_id;sensor_type;location;lat;lon;timestamp;pressure;altitude;pressure_sealevel;temperature;humidity
21760;BME280;11041;50.854;20.580;2022-08-20T00:01:06;98477.09;;;20.76;80.35
21760;BME280;11041;50.854;20.580;2022-08-20T00:03:38;98485.03;;;20.70;79.95
21760;BME280;11041;50.854;20.580;2022-08-20T00:06:15;98506.94;;;20.68;80.17
21760;BME280;11041;50.854;20.580;2022-08-20T00:08:43;98511.31;;;20.66;80.53
21760;BME280;11041;50.854;20.580;2022-08-20T00:11:14;98514.09;;;20.66;80.52
21760;BME280;11041;50.854;20.580;2022-08-20T00:13:49;98508.94;;;20.64;80.60
21760;BME280;11041;50.854;20.580;2022-08-20T00:16:19;98518.94;;;20.69;80.72
21760;BME280;11041;50.854;20.580;2022-08-20T00:18:47;98513.78;;;20.74;80.90
21760;BME280;11041;50.854;20.580;2022-08-20T00:21:16;98490.28;;;20.79;80.86
21760;BME280;11041;50.854;20.580;2022-08-20T00:23:47;98489.47;;;20.82;80.68
21760;BME280;11041;50.854;20.580;2022-08-20T00:26:17;98488.72;;;20.89;80.36
21760;BME280;11041;50.854;20.580;2022-08-20T00:28:43;98483.16;;;20.89;80.36
21760;BME280;11041;50.854;20.580;2022-08-20T00:31:15;98498.34;;;20.98;80.03
21760;BME280;11041;50.854;20.580;2022-08-20T00:33:47;98488.78;;;20.99;80.07
21760;BME280;11041;50.854;20.580;2022-08-20T00:36:15;98473.22;;;20.98;79.95
21760;BME280;11041;50.854;20.580;2022-08-20T00:38:45;98470.00;;;20.96;79.88
21760;BME280;11041;50.854;20.580;2022-08-20T00:41:22;98473.19;;;20.91;80.05
21760;BME280;11041;50.854;20.580;2022-08-20T00:44:11;98468.31;;;20.74;80.60
21760;BME280;11041;50.854;20.580;2022-08-20T00:46:40;98461.84;;;20.62;80.98
21760;BME280;11041;50.854;20.580;2022-08-20T00:49:14;98455.03;;;20.56;81.28
21760;BME280;11041;50.854;20.580;2022-08-20T00:51:51;98437.00;;;20.47;81.54
21760;BME280;11041;50.854;20.580;2022-08-20T00:57:39;98448.09;;;20.39;82.15
21760;BME280;11041;50.854;20.580;2022-08-20T01:00:13;98449.69;;;20.37;82.28
21760;BME280;11041;50.854;20.580;2022-08-20T01:02:41;98446.47;;;20.28;82.53
21760;BME280;11041;50.854;20.580;2022-08-20T01:05:09;98448.41;;;20.27;82.88
21760;BME280;11041;50.854;20.580;2022-08-20T01:07:37;98433.22;;;20.17;83.13
21760;BME280;11041;50.854;20.580;2022-08-20T01:10:11;98452.25;;;20.08;83.46
21760;BME280;11041;50.854;20.580;2022-08-20T01:12:44;98450.19;;;19.98;83.98
21760;BME280;11041;50.854;20.580;2022-08-20T01:15:15;98456.97;;;19.97;83.98
21760;BME280;11041;50.854;20.580;2022-08-20T01:17:48;98438.19;;;19.90;84.14
21760;BME280;11041;50.854;20.580;2022-08-20T01:20:22;98449.78;;;19.96;83.92
21760;BME280;11041;50.854;20.580;2022-08-20T01:26:27;98446.97;;;19.96;84.31
21760;BME280;11041;50.854;20.580;2022-08-20T01:29:08;98434.22;;;19.95;84.22
21760;BME280;11041;50.854;20.580;2022-08-20T01:31:39;98428.66;;;19.95;84.18
21760;BME280;11041;50.854;20.580;2022-08-20T01:34:14;98423.47;;;19.93;84.19
21760;BME280;11041;50.854;20.580;2022-08-20T01:36:50;98413.47;;;19.89;84.27
21760;BME280;11041;50.854;20.580;2022-08-20T01:39:34;98415.50;;;19.92;84.60
21760;BME280;11041;50.854;20.580;2022-08-20T01:42:26;98430.97;;;19.86;85.11
21760;BME280;11041;50.854;20.580;2022-08-20T01:44:56;98442.44;;;19.77;85.48
21760;BME280;11041;50.854;20.580;2022-08-20T01:47:27;98446.75;;;19.71;86.08
21760;BME280;11041;50.854;20.580;2022-08-20T01:50:02;98438.78;;;19.69;86.25
21760;BME280;11041;50.854;20.580;2022-08-20T01:55:31;98425.31;;;19.78;85.97
21760;BME280;11041;50.854;20.580;2022-08-20T01:57:58;98416.59;;;19.80;85.91
21760;BME280;11041;50.854;20.580;2022-08-20T02:00:26;98411.38;;;19.78;85.96
21760;BME280;11041;50.854;20.580;2022-08-20T02:02:53;98406.59;;;19.79;85.94
21760;BME280;11041;50.854;20.580;2022-08-20T02:05:20;98402.66;;;19.80;86.21
21760;BME280;11041;50.854;20.580;2022-08-20T02:07:47;98389.53;;;19.84;86.28
21760;BME280;11041;50.854;20.580;2022-08-20T02:10:16;98378.41;;;19.88;86.10
21760;BME280;11041;50.854;20.580;2022-08-20T02:12:44;98380.06;;;19.96;86.03
21760;BME280;11041;50.854;20.580;2022-08-20T02:15:12;98371.69;;;19.96;85.87
21760;BME280;11041;50.854;20.580;2022-08-20T02:17:40;98373.69;;;19.95;85.65
21760;BME280;11041;50.854;20.580;2022-08-20T02:20:16;98378.84;;;19.93;86.02
21760;BME280;11041;50.854;20.580;2022-08-20T02:22:55;98370.84;;;19.88;86.10
21760;BME280;11041;50.854;20.580;2022-08-20T02:25:26;98371.25;;;19.87;86.30
21760;BME280;11041;50.854;20.580;2022-08-20T02:27:56;98366.41;;;19.80;86.37
21760;BME280;11041;50.854;20.580;2022-08-20T02:30:31;98371.94;;;19.76;86.66
21760;BME280;11041;50.854;20.580;2022-08-20T02:33:06;98358.34;;;19.68;86.74
21760;BME280;11041;50.854;20.580;2022-08-20T02:35:33;98354.78;;;19.74;86.84
21760;BME280;11041;50.854;20.580;2022-08-20T02:38:00;98354.78;;;19.74;86.95
21760;BME280;11041;50.854;20.580;2022-08-20T02:40:30;98341.22;;;19.69;87.09
21760;BME280;11041;50.854;20.580;2022-08-20T02:42:59;98352.41;;;19.73;87.03
21760;BME280;11041;50.854;20.580;2022-08-20T02:45:28;98347.19;;;19.68;87.17
21760;BME280;11041;50.854;20.580;2022-08-20T02:47:55;98346.75;;;19.66;87.49
21760;BME280;11041;50.854;20.580;2022-08-20T02:50:25;98337.97;;;19.64;87.46
21760;BME280;11041;50.854;20.580;2022-08-20T02:52:52;98331.19;;;19.61;87.55
21760;BME280;11041;50.854;20.580;2022-08-20T02:55:21;98315.63;;;19.60;87.79
21760;BME280;11041;50.854;20.580;2022-08-20T02:57:48;98322.41;;;19.59;87.65
21760;BME280;11041;50.854;20.580;2022-08-20T03:00:19;98330.69;;;19.52;87.98
21760;BME280;11041;50.854;20.580;2022-08-20T03:02:46;98320.59;;;19.33;88.53
21760;BME280;11041;50.854;20.580;2022-08-20T03:05:13;98335.28;;;19.30;89.08
21760;BME280;11041;50.854;20.580;2022-08-20T03:07:47;98336.06;;;19.27;89.20
21760;BME280;11041;50.854;20.580;2022-08-20T03:10:15;98345.56;;;19.22;89.50
21760;BME280;11041;50.854;20.580;2022-08-20T03:12:42;98343.53;;;19.19;89.40
21760;BME280;11041;50.854;20.580;2022-08-20T03:15:10;98351.88;;;19.19;89.27
21760;BME280;11041;50.854;20.580;2022-08-20T03:17:37;98362.56;;;19.13;88.86
21760;BME280;11041;50.854;20.580;2022-08-20T03:20:06;98342.56;;;19.01;89.84
21760;BME280;11041;50.854;20.580;2022-08-20T03:22:34;98366.50;;;19.09;89.94
21760;BME280;11041;50.854;20.580;2022-08-20T03:25:00;98368.50;;;19.08;89.94
21760;BME280;11041;50.854;20.580;2022-08-20T03:27:27;98360.50;;;19.07;90.27
21760;BME280;11041;50.854;20.580;2022-08-20T03:29:54;98354.50;;;19.05;90.28
21760;BME280;11041;50.854;20.580;2022-08-20T03:32:20;98353.72;;;19.04;89.79
21760;BME280;11041;50.854;20.580;2022-08-20T03:34:50;98351.00;;;19.08;89.61
21760;BME280;11041;50.854;20.580;2022-08-20T03:37:17;98355.41;;;19.12;89.25
21760;BME280;11041;50.854;20.580;2022-08-20T03:39:44;98354.59;;;19.12;89.44
21760;BME280;11041;50.854;20.580;2022-08-20T03:42:11;98355.34;;;19.09;89.32
21760;BME280;11041;50.854;20.580;2022-08-20T03:44:37;98356.94;;;19.06;89.22
21760;BME280;11041;50.854;20.580;2022-08-20T03:47:05;98368.91;;;19.10;89.22
21760;BME280;11041;50.854;20.580;2022-08-20T03:49:35;98369.28;;;19.09;89.42
21760;BME280;11041;50.854;20.580;2022-08-20T03:52:04;98364.84;;;19.01;89.31
21760;BME280;11041;50.854;20.580;2022-08-20T03:54:31;98372.69;;;18.95;89.60
21760;BME280;11041;50.854;20.580;2022-08-20T03:56:59;98357.53;;;18.89;90.19
21760;BME280;11041;50.854;20.580;2022-08-20T03:59:26;98368.69;;;18.92;90.30
21760;BME280;11041;50.854;20.580;2022-08-20T04:01:52;98361.91;;;18.90;90.52
21760;BME280;11041;50.854;20.580;2022-08-20T04:04:20;98357.13;;;18.87;91.06
21760;BME280;11041;50.854;20.580;2022-08-20T04:06:47;98375.41;;;18.88;90.77
21760;BME280;11041;50.854;20.580;2022-08-20T04:09:14;98370.25;;;18.86;90.82
21760;BME280;11041;50.854;20.580;2022-08-20T04:11:42;98368.63;;;18.85;90.89
21760;BME280;11041;50.854;20.580;2022-08-20T04:14:10;98360.66;;;18.84;90.77
21760;BME280;11041;50.854;20.580;2022-08-20T04:16:38;98367.13;;;18.91;90.89
21760;BME280;11041;50.854;20.580;2022-08-20T04:19:06;98371.91;;;18.94;91.05
21760;BME280;11041;50.854;20.580;2022-08-20T04:21:35;98369.13;;;18.94;91.09
21760;BME280;11041;50.854;20.580;2022-08-20T04:24:04;98372.38;;;19.00;90.83
21760;BME280;11041;50.854;20.580;2022-08-20T04:26:32;98374.78;;;19.02;90.55
21760;BME280;11041;50.854;20.580;2022-08-20T04:29:02;98377.56;;;19.02;90.94
21760;BME280;11041;50.854;20.580;2022-08-20T04:31:29;98387.19;;;19.08;91.29
21760;BME280;11041;50.854;20.580;2022-08-20T04:34:03;98372.50;;;19.11;91.50
21760;BME280;11041;50.854;20.580;2022-08-20T04:36:33;98372.16;;;19.16;91.69
21760;BME280;11041;50.854;20.580;2022-08-20T04:39:00;98388.22;;;19.33;91.70
21760;BME280;11041;50.854;20.580;2022-08-20T04:41:27;98387.13;;;19.42;91.27
21760;BME280;11041;50.854;20.580;2022-08-20T04:43:55;98385.66;;;19.55;90.99
21760;BME280;11041;50.854;20.580;2022-08-20T04:46:25;98400.44;;;19.59;90.51
21760;BME280;11041;50.854;20.580;2022-08-20T04:48:55;98392.44;;;19.57;90.69
21760;BME280;11041;50.854;20.580;2022-08-20T04:51:22;98389.28;;;19.59;90.96
21760;BME280;11041;50.854;20.580;2022-08-20T04:53:49;98389.00;;;19.68;91.35
21760;BME280;11041;50.854;20.580;2022-08-20T04:56:20;98395.09;;;19.81;91.36
21760;BME280;11041;50.854;20.580;2022-08-20T04:58:49;98391.16;;;19.89;90.95
21760;BME280;11041;50.854;20.580;2022-08-20T05:01:16;98388.88;;;20.02;90.69
21760;BME280;11041;50.854;20.580;2022-08-20T05:03:43;98377.31;;;20.03;90.41
21760;BME280;11041;50.854;20.580;2022-08-20T05:06:13;98393.78;;;20.19;90.06
21760;BME280;11041;50.854;20.580;2022-08-20T05:08:42;98386.19;;;20.19;89.42
21760;BME280;11041;50.854;20.580;2022-08-20T05:11:09;98380.28;;;20.28;89.44
21760;BME280;11041;50.854;20.580;2022-08-20T05:13:36;98371.94;;;20.32;89.63
21760;BME280;11041;50.854;20.580;2022-08-20T05:16:04;98375.59;;;20.43;89.98
21760;BME280;11041;50.854;20.580;2022-08-20T05:18:31;98365.25;;;20.51;90.00
21760;BME280;11041;50.854;20.580;2022-08-20T05:21:00;98367.72;;;20.59;89.62
21760;BME280;11041;50.854;20.580;2022-08-20T05:23:36;98374.94;;;20.68;89.39
21760;BME280;11041;50.854;20.580;2022-08-20T05:26:10;98367.00;;;20.77;89.54
21760;BME280;11041;50.854;20.580;2022-08-20T05:28:39;98365.03;;;20.81;89.39
21760;BME280;11041;50.854;20.580;2022-08-20T05:31:06;98371.41;;;20.85;88.55
21760;BME280;11041;50.854;20.580;2022-08-20T05:33:37;98357.44;;;20.81;88.69
21760;BME280;11041;50.854;20.580;2022-08-20T05:36:06;98361.44;;;20.84;88.58
21760;BME280;11041;50.854;20.580;2022-08-20T05:38:34;98365.47;;;20.90;88.56
21760;BME280;11041;50.854;20.580;2022-08-20T05:41:03;98377.84;;;20.96;88.69
21760;BME280;11041;50.854;20.580;2022-08-20T05:43:31;98395.03;;;21.05;88.40
21760;BME280;11041;50.854;20.580;2022-08-20T05:46:00;98382.69;;;21.14;88.15
21760;BME280;11041;50.854;20.580;2022-08-20T05:48:29;98367.53;;;21.18;87.87
21760;BME280;11041;50.854;20.580;2022-08-20T05:50:56;98367.56;;;21.36;87.96
21760;BME280;11041;50.854;20.580;2022-08-20T05:53:24;98350.03;;;21.46;87.64
21760;BME280;11041;50.854;20.580;2022-08-20T05:55:52;98332.06;;;21.55;87.20
21760;BME280;11041;50.854;20.580;2022-08-20T05:58:26;98335.25;;;21.71;86.57
21760;BME280;11041;50.854;20.580;2022-08-20T06:00:54;98348.06;;;21.79;85.61
21760;BME280;11041;50.854;20.580;2022-08-20T06:03:22;98336.06;;;21.86;84.98
21760;BME280;11041;50.854;20.580;2022-08-20T06:06:08;98330.47;;;21.97;84.39
21760;BME280;11041;50.854;20.580;2022-08-20T06:08:35;98339.22;;;22.09;83.96
21760;BME280;11041;50.854;20.580;2022-08-20T06:11:02;98320.81;;;22.12;83.31
21760;BME280;11041;50.854;20.580;2022-08-20T06:13:29;98330.44;;;22.25;82.47
21760;BME280;11041;50.854;20.580;2022-08-20T06:15:56;98332.00;;;22.33;82.19
21760;BME280;11041;50.854;20.580;2022-08-20T06:18:23;98328.00;;;22.35;81.63
21760;BME280;11041;50.854;20.580;2022-08-20T06:20:50;98322.78;;;22.40;81.76
21760;BME280;11041;50.854;20.580;2022-08-20T06:23:18;98328.34;;;22.51;81.10
21760;BME280;11041;50.854;20.580;2022-08-20T06:25:46;98321.13;;;22.57;80.82
21760;BME280;11041;50.854;20.580;2022-08-20T06:28:16;98316.69;;;22.67;80.24
21760;BME280;11041;50.854;20.580;2022-08-20T06:30:43;98312.66;;;22.71;80.29
21760;BME280;11041;50.854;20.580;2022-08-20T06:33:10;98316.59;;;22.85;80.23
21760;BME280;11041;50.854;20.580;2022-08-20T06:35:37;98318.56;;;22.95;79.27
21760;BME280;11041;50.854;20.580;2022-08-20T06:38:04;98300.53;;;23.00;77.18
21760;BME280;11041;50.854;20.580;2022-08-20T06:40:31;98294.06;;;23.10;76.46
21760;BME280;11041;50.854;20.580;2022-08-20T06:43:00;98283.59;;;23.21;76.36
21760;BME280;11041;50.854;20.580;2022-08-20T06:45:30;98298.28;;;23.36;75.57
21760;BME280;11041;50.854;20.580;2022-08-20T06:48:03;98295.81;;;23.45;75.46
21760;BME280;11041;50.854;20.580;2022-08-20T06:50:37;98302.50;;;23.58;76.53
21760;BME280;11041;50.854;20.580;2022-08-20T06:53:11;98307.66;;;23.67;76.38
21760;BME280;11041;50.854;20.580;2022-08-20T06:55:43;98310.44;;;23.74;75.59
21760;BME280;11041;50.854;20.580;2022-08-20T06:58:12;98314.34;;;23.80;75.38
21760;BME280;11041;50.854;20.580;2022-08-20T07:00:42;98319.03;;;23.94;75.13
21760;BME280;11041;50.854;20.580;2022-08-20T07:03:10;98315.34;;;24.05;74.15
21760;BME280;11041;50.854;20.580;2022-08-20T07:05:41;98322.84;;;24.15;74.50
21760;BME280;11041;50.854;20.580;2022-08-20T07:08:16;98319.97;;;24.22;73.15
21760;BME280;11041;50.854;20.580;2022-08-20T07:10:48;98317.44;;;24.35;72.79
21760;BME280;11041;50.854;20.580;2022-08-20T07:13:15;98322.53;;;24.47;71.63
21760;BME280;11041;50.854;20.580;2022-08-20T07:15:43;98319.63;;;24.54;71.04
21760;BME280;11041;50.854;20.580;2022-08-20T07:18:12;98319.09;;;24.66;71.74
21760;BME280;11041;50.854;20.580;2022-08-20T07:20:40;98322.97;;;24.76;71.12
21760;BME280;11041;50.854;20.580;2022-08-20T07:23:08;98320.47;;;24.82;70.85
21760;BME280;11041;50.854;20.580;2022-08-20T07:25:39;98321.13;;;24.93;70.37
21760;BME280;11041;50.854;20.580;2022-08-20T07:28:13;98340.25;;;25.05;69.91
21760;BME280;11041;50.854;20.580;2022-08-20T07:30:42;98336.16;;;25.10;68.96
21760;BME280;11041;50.854;20.580;2022-08-20T07:33:29;98335.22;;;25.20;67.78
21760;BME280;11041;50.854;20.580;2022-08-20T07:35:58;98332.38;;;25.24;66.23
21760;BME280;11041;50.854;20.580;2022-08-20T07:38:27;98330.25;;;25.32;66.70
21760;BME280;11041;50.854;20.580;2022-08-20T07:41:00;98340.50;;;25.45;65.85
21760;BME280;11041;50.854;20.580;2022-08-20T07:43:28;98347.19;;;25.55;66.45
21760;BME280;11041;50.854;20.580;2022-08-20T07:45:58;98336.19;;;25.64;65.34
21760;BME280;11041;50.854;20.580;2022-08-20T07:48:29;98344.03;;;25.77;64.79
21760;BME280;11041;50.854;20.580;2022-08-20T07:50:59;98324.25;;;25.80;64.06
21760;BME280;11041;50.854;20.580;2022-08-20T07:53:26;98337.31;;;25.94;65.14
21760;BME280;11041;50.854;20.580;2022-08-20T07:55:53;98334.00;;;25.99;65.26
21760;BME280;11041;50.854;20.580;2022-08-20T07:58:21;98335.81;;;26.09;63.30
21760;BME280;11041;50.854;20.580;2022-08-20T08:00:50;98326.41;;;26.20;64.44
21760;BME280;11041;50.854;20.580;2022-08-20T08:03:17;98330.25;;;26.29;64.62
21760;BME280;11041;50.854;20.580;2022-08-20T08:05:48;98326.06;;;26.38;63.52
21760;BME280;11041;50.854;20.580;2022-08-20T08:08:22;98327.06;;;26.47;62.87
21760;BME280;11041;50.854;20.580;2022-08-20T08:10:58;98322.16;;;26.51;59.90
21760;BME280;11041;50.854;20.580;2022-08-20T08:13:29;98319.22;;;26.59;60.90
21760;BME280;11041;50.854;20.580;2022-08-20T08:15:59;98337.66;;;26.63;58.96
21760;BME280;11041;50.854;20.580;2022-08-20T08:18:37;98338.34;;;26.67;58.30
21760;BME280;11041;50.854;20.580;2022-08-20T08:21:07;98340.25;;;26.74;58.48
21760;BME280;11041;50.854;20.580;2022-08-20T08:23:39;98333.94;;;26.86;58.49
21760;BME280;11041;50.854;20.580;2022-08-20T08:26:12;98341.72;;;26.98;57.75
21760;BME280;11041;50.854;20.580;2022-08-20T08:28:40;98327.13;;;27.04;58.63
21760;BME280;11041;50.854;20.580;2022-08-20T08:31:10;98326.00;;;27.17;58.50
21760;BME280;11041;50.854;20.580;2022-08-20T08:33:37;98324.03;;;27.34;58.75
21760;BME280;11041;50.854;20.580;2022-08-20T08:36:13;98337.81;;;27.49;57.84
21760;BME280;11041;50.854;20.580;2022-08-20T08:38:43;98333.66;;;27.53;54.84
21760;BME280;11041;50.854;20.580;2022-08-20T08:41:36;98317.25;;;27.48;54.89
21760;BME280;11041;50.854;20.580;2022-08-20T08:44:30;98323.44;;;27.59;54.68
21760;BME280;11041;50.854;20.580;2022-08-20T08:47:09;98318.22;;;27.58;55.25
21760;BME280;11041;50.854;20.580;2022-08-20T08:49:46;98325.31;;;27.66;54.48
21760;BME280;11041;50.854;20.580;2022-08-20T08:52:25;98313.84;;;27.73;55.12
21760;BME280;11041;50.854;20.580;2022-08-20T08:54:59;98309.22;;;27.79;54.56
21760;BME280;11041;50.854;20.580;2022-08-20T08:57:27;98309.97;;;27.83;53.36
21760;BME280;11041;50.854;20.580;2022-08-20T09:00:13;98316.31;;;27.88;54.17
21760;BME280;11041;50.854;20.580;2022-08-20T09:05:27;98311.63;;;27.97;53.89
21760;BME280;11041;50.854;20.580;2022-08-20T09:07:58;98316.63;;;28.06;53.40
21760;BME280;11041;50.854;20.580;2022-08-20T09:10:29;98322.00;;;28.17;52.33
21760;BME280;11041;50.854;20.580;2022-08-20T09:12:55;98305.84;;;28.17;52.15
21760;BME280;11041;50.854;20.580;2022-08-20T09:15:22;98307.22;;;28.25;51.29
21760;BME280;11041;50.854;20.580;2022-08-20T09:17:53;98308.72;;;28.30;51.22
21760;BME280;11041;50.854;20.580;2022-08-20T09:20:22;98307.16;;;28.29;48.17
21760;BME280;11041;50.854;20.580;2022-08-20T09:22:48;98304.41;;;28.25;48.76
21760;BME280;11041;50.854;20.580;2022-08-20T09:25:16;98298.94;;;28.18;48.74
21760;BME280;11041;50.854;20.580;2022-08-20T09:27:43;98298.75;;;28.25;50.88
21760;BME280;11041;50.854;20.580;2022-08-20T09:30:11;98312.00;;;28.29;50.26
21760;BME280;11041;50.854;20.580;2022-08-20T09:32:38;98292.66;;;28.27;48.97
21760;BME280;11041;50.854;20.580;2022-08-20T09:35:05;98306.59;;;28.34;47.47
21760;BME280;11041;50.854;20.580;2022-08-20T09:37:33;98294.84;;;28.36;47.94
21760;BME280;11041;50.854;20.580;2022-08-20T09:40:00;98291.91;;;28.39;48.31
21760;BME280;11041;50.854;20.580;2022-08-20T09:42:41;98292.63;;;28.43;48.13
21760;BME280;11041;50.854;20.580;2022-08-20T09:45:10;98284.22;;;28.40;48.45
21760;BME280;11041;50.854;20.580;2022-08-20T09:47:37;98290.06;;;28.49;48.33
21760;BME280;11041;50.854;20.580;2022-08-20T09:50:05;98281.56;;;28.49;49.78
21760;BME280;11041;50.854;20.580;2022-08-20T09:52:41;98286.91;;;28.60;48.54
21760;BME280;11041;50.854;20.580;2022-08-20T09:58:06;98292.84;;;28.78;48.02
21760;BME280;11041;50.854;20.580;2022-08-20T10:00:33;98278.94;;;28.84;46.50
21760;BME280;11041;50.854;20.580;2022-08-20T10:03:00;98279.03;;;28.80;47.04
21760;BME280;11041;50.854;20.580;2022-08-20T10:05:28;98280.03;;;28.74;49.03
21760;BME280;11041;50.854;20.580;2022-08-20T10:07:55;98273.16;;;28.75;47.93
21760;BME280;11041;50.854;20.580;2022-08-20T10:10:22;98292.41;;;28.80;48.72
21760;BME280;11041;50.854;20.580;2022-08-20T10:12:49;98292.75;;;28.82;46.84
21760;BME280;11041;50.854;20.580;2022-08-20T10:15:15;98286.19;;;28.85;47.35
21760;BME280;11041;50.854;20.580;2022-08-20T10:17:46;98279.81;;;28.81;47.65
21760;BME280;11041;50.854;20.580;2022-08-20T10:20:13;98292.06;;;28.91;48.01
21760;BME280;11041;50.854;20.580;2022-08-20T10:22:41;98285.84;;;28.96;47.19
21760;BME280;11041;50.854;20.580;2022-08-20T10:25:09;98272.72;;;28.89;46.28
21760;BME280;11041;50.854;20.580;2022-08-20T10:27:45;98276.66;;;28.79;47.51
21760;BME280;11041;50.854;20.580;2022-08-20T10:30:28;98280.53;;;28.85;46.49
21760;BME280;11041;50.854;20.580;2022-08-20T10:32:54;98296.59;;;28.88;47.16
21760;BME280;11041;50.854;20.580;2022-08-20T10:35:21;98292.75;;;28.82;46.43
21760;BME280;11041;50.854;20.580;2022-08-20T10:37:48;98293.66;;;28.92;47.24
21760;BME280;11041;50.854;20.580;2022-08-20T10:40:15;98290.97;;;29.01;47.05
21760;BME280;11041;50.854;20.580;2022-08-20T10:42:44;98291.09;;;29.10;48.31
21760;BME280;11041;50.854;20.580;2022-08-20T10:45:13;98290.84;;;29.17;45.64
21760;BME280;11041;50.854;20.580;2022-08-20T10:47:44;98300.03;;;29.21;45.36
21760;BME280;11041;50.854;20.580;2022-08-20T10:50:16;98298.69;;;29.26;44.95
21760;BME280;11041;50.854;20.580;2022-08-20T10:52:48;98295.84;;;29.26;45.95
21760;BME280;11041;50.854;20.580;2022-08-20T10:55:15;98290.88;;;29.30;45.96
21760;BME280;11041;50.854;20.580;2022-08-20T10:57:43;98294.25;;;29.38;45.79
21760;BME280;11041;50.854;20.580;2022-08-20T11:00:16;98297.19;;;29.47;46.17
21760;BME280;11041;50.854;20.580;2022-08-20T11:02:44;98293.13;;;29.48;45.66
21760;BME280;11041;50.854;20.580;2022-08-20T11:05:11;98272.63;;;29.31;45.50
21760;BME280;11041;50.854;20.580;2022-08-20T11:07:41;98277.50;;;29.30;45.78
21760;BME280;11041;50.854;20.580;2022-08-20T11:10:10;98273.56;;;29.28;45.66
21760;BME280;11041;50.854;20.580;2022-08-20T11:12:37;98284.88;;;29.28;45.93
21760;BME280;11041;50.854;20.580;2022-08-20T11:15:04;98277.63;;;29.27;45.36
21760;BME280;11041;50.854;20.580;2022-08-20T11:17:35;98280.66;;;29.20;46.06
21760;BME280;11041;50.854;20.580;2022-08-20T11:20:04;98280.34;;;29.18;45.73
21760;BME280;11041;50.854;20.580;2022-08-20T11:22:33;98267.44;;;29.17;44.98
21760;BME280;11041;50.854;20.580;2022-08-20T11:25:00;98275.94;;;29.17;44.66
21760;BME280;11041;50.854;20.580;2022-08-20T11:27:36;98267.22;;;29.11;44.64
21760;BME280;11041;50.854;20.580;2022-08-20T11:30:08;98265.19;;;29.12;45.75
21760;BME280;11041;50.854;20.580;2022-08-20T11:32:36;98268.22;;;29.17;45.82
21760;BME280;11041;50.854;20.580;2022-08-20T11:35:05;98264.38;;;29.24;44.71
21760;BME280;11041;50.854;20.580;2022-08-20T11:37:33;98261.56;;;29.24;45.66
21760;BME280;11041;50.854;20.580;2022-08-20T11:40:12;98260.09;;;29.32;44.66
21760;BME280;11041;50.854;20.580;2022-08-20T11:42:39;98261.44;;;29.27;44.99
21760;BME280;11041;50.854;20.580;2022-08-20T11:45:07;98259.16;;;29.22;45.55
21760;BME280;11041;50.854;20.580;2022-08-20T11:47:34;98254.31;;;29.23;46.55
21760;BME280;11041;50.854;20.580;2022-08-20T11:50:14;98240.72;;;29.30;45.73
21760;BME280;11041;50.854;20.580;2022-08-20T11:52:41;98243.75;;;29.36;45.00
21760;BME280;11041;50.854;20.580;2022-08-20T11:55:13;98234.69;;;29.41;44.39
21760;BME280;11041;50.854;20.580;2022-08-20T11:57:46;98242.75;;;29.43;45.10
21760;BME280;11041;50.854;20.580;2022-08-20T12:00:19;98239.72;;;29.37;44.53
21760;BME280;11041;50.854;20.580;2022-08-20T12:02:47;98227.72;;;29.20;42.77
21760;BME280;11041;50.854;20.580;2022-08-20T12:05:18;98238.38;;;29.16;43.25
21760;BME280;11041;50.854;20.580;2022-08-20T12:07:44;98249.53;;;29.20;43.21
21760;BME280;11041;50.854;20.580;2022-08-20T12:10:12;98225.56;;;29.24;44.64
21760;BME280;11041;50.854;20.580;2022-08-20T12:12:40;98237.28;;;29.48;44.34
21760;BME280;11041;50.854;20.580;2022-08-20T12:15:11;98230.13;;;29.69;44.38
21760;BME280;11041;50.854;20.580;2022-08-20T12:17:39;98217.06;;;29.85;42.91
21760;BME280;11041;50.854;20.580;2022-08-20T12:20:12;98225.25;;;30.05;41.99
21760;BME280;11041;50.854;20.580;2022-08-20T12:22:40;98217.63;;;30.14;41.89
21760;BME280;11041;50.854;20.580;2022-08-20T12:25:08;98218.13;;;30.22;40.25
21760;BME280;11041;50.854;20.580;2022-08-20T12:27:37;98214.63;;;30.18;40.28
21760;BME280;11041;50.854;20.580;2022-08-20T12:30:18;98222.94;;;30.12;40.92
21760;BME280;11041;50.854;20.580;2022-08-20T12:32:46;98212.06;;;30.11;41.03
21760;BME280;11041;50.854;20.580;2022-08-20T12:35:17;98216.34;;;30.15;41.17
21760;BME280;11041;50.854;20.580;2022-08-20T12:37:52;98211.81;;;30.18;40.70
21760;BME280;11041;50.854;20.580;2022-08-20T12:40:25;98197.56;;;30.09;40.87
21760;BME280;11041;50.854;20.580;2022-08-20T12:42:53;98201.06;;;30.13;40.97
21760;BME280;11041;50.854;20.580;2022-08-20T12:45:20;98207.25;;;30.21;41.72
21760;BME280;11041;50.854;20.580;2022-08-20T12:47:47;98206.31;;;30.36;41.28
21760;BME280;11041;50.854;20.580;2022-08-20T12:50:20;98194.47;;;30.60;41.07
21760;BME280;11041;50.854;20.580;2022-08-20T12:52:48;98205.09;;;30.78;40.74
21760;BME280;11041;50.854;20.580;2022-08-20T12:55:19;98195.09;;;30.95;39.67
21760;BME280;11041;50.854;20.580;2022-08-20T12:57:53;98203.66;;;31.05;39.19
21760;BME280;11041;50.854;20.580;2022-08-20T13:00:34;98216.28;;;31.04;39.84
21760;BME280;11041;50.854;20.580;2022-08-20T13:03:05;98214.59;;;31.15;39.73
21760;BME280;11041;50.854;20.580;2022-08-20T13:05:34;98225.69;;;31.32;38.85
21760;BME280;11041;50.854;20.580;2022-08-20T13:08:06;98232.13;;;31.32;37.08
21760;BME280;11041;50.854;20.580;2022-08-20T13:10:44;98224.22;;;31.18;37.61
21760;BME280;11041;50.854;20.580;2022-08-20T13:13:13;98227.91;;;30.96;38.93
21760;BME280;11041;50.854;20.580;2022-08-20T13:15:41;98232.44;;;30.85;40.01
21760;BME280;11041;50.854;20.580;2022-08-20T13:18:11;98225.75;;;30.78;40.41
21760;BME280;11041;50.854;20.580;2022-08-20T13:20:37;98234.91;;;30.83;39.72